Terminal Aerodrome Forecast
Issued by NWS Louisville, KY

Home | Current Version | Previous Version | Text Only | Print | Product List | Glossary On
Versions: 1 2 3 4 5 6 7 8 9 10 11 12 13 14 15 16
232
FTUS43 KLMK 240520
TAFLEX
TAF
KLEX 240520Z 2406/2506 15003KT P6SM BKN150
     FM241000 VRB03KT 4SM BR BKN090
     FM241600 18006KT 6SM -SHRA BR BKN030
     FM242000 22006KT 4SM SHRA BR BKN019=

USA.gov is the U.S. government's official web portal to all federal, state and local government web resources and services.